<?xml version="1.0" encoding="utf-8"?>
<gpx xmlns:xsi="http://www.w3.org/2001/XMLSchema-instance" xmlns:xsd="http://www.w3.org/2001/XMLSchema" version="1.1" creator="Shapelink.com" xmlns="http://www.topografix.com/GPX/1/1" xmlns:gpxtpx="http://www.garmin.com/xmlschemas/TrackPointExtension/v1">
  <metadata>
    <name>Övrigt 1.83 km, 2020-06-05</name>
    <desc></desc>
    <author><name>Marian Moron</name></author> 
    <time>2020-06-05T21:09:15Z</time>
  </metadata>
  <trk>
    <name>Övrigt 1.83 km, 2020-06-05</name>
    <trkseg>
      <trkpt lat="51.228934206637" lon="4.458083919027">
        <ele>6.2</ele>
        <time>2020-06-05T21:09:15Z</time>
      </trkpt>
      <trkpt lat="51.228914341534" lon="4.458129684201">
        <ele>5.2</ele>
        <time>2020-06-05T21:09:18Z</time>
      </trkpt>
      <trkpt lat="51.228873186405" lon="4.458186262026">
        <ele>6</ele>
        <time>2020-06-05T21:09:30Z</time>
      </trkpt>
      <trkpt lat="51.22884091609" lon="4.458222220377">
        <ele>5.8</ele>
        <time>2020-06-05T21:09:35Z</time>
      </trkpt>
      <trkpt lat="51.228550734712" lon="4.458402012132">
        <ele>2.2</ele>
        <time>2020-06-05T21:09:59Z</time>
      </trkpt>
      <trkpt lat="51.228629105477" lon="4.459103409524">
        <ele>1.2</ele>
        <time>2020-06-05T21:10:24Z</time>
      </trkpt>
      <trkpt lat="51.228625752717" lon="4.459177673158">
        <ele>1.6</ele>
        <time>2020-06-05T21:10:28Z</time>
      </trkpt>
      <trkpt lat="51.228636230092" lon="4.459393590902">
        <ele>3.2</ele>
        <time>2020-06-05T21:10:40Z</time>
      </trkpt>
      <trkpt lat="51.228841251366" lon="4.460040170668">
        <ele>4</ele>
        <time>2020-06-05T21:11:14Z</time>
      </trkpt>
      <trkpt lat="51.228892632413" lon="4.460221806441">
        <ele>3.8</ele>
        <time>2020-06-05T21:11:28Z</time>
      </trkpt>
      <trkpt lat="51.228926076194" lon="4.460417942901">
        <ele>4.2</ele>
        <time>2020-06-05T21:11:43Z</time>
      </trkpt>
      <trkpt lat="51.229050044495" lon="4.460621874528">
        <ele>4.2</ele>
        <time>2020-06-05T21:12:03Z</time>
      </trkpt>
      <trkpt lat="51.229226651128" lon="4.46058398834">
        <ele>2.2</ele>
        <time>2020-06-05T21:12:25Z</time>
      </trkpt>
      <trkpt lat="51.229232937553" lon="4.460558591183">
        <ele>2.2</ele>
        <time>2020-06-05T21:12:27Z</time>
      </trkpt>
      <trkpt lat="51.229278702727" lon="4.460516849321">
        <ele>1.6</ele>
        <time>2020-06-05T21:12:32Z</time>
      </trkpt>
      <trkpt lat="51.229351960533" lon="4.460514502389">
        <ele>1.6</ele>
        <time>2020-06-05T21:12:41Z</time>
      </trkpt>
      <trkpt lat="51.229457153378" lon="4.460973914328">
        <ele>0.8</ele>
        <time>2020-06-05T21:13:26Z</time>
      </trkpt>
      <trkpt lat="51.229520352904" lon="4.461031833257">
        <ele>0.8</ele>
        <time>2020-06-05T21:13:34Z</time>
      </trkpt>
      <trkpt lat="51.229654463304" lon="4.461119675569">
        <ele>3.4</ele>
        <time>2020-06-05T21:13:50Z</time>
      </trkpt>
      <trkpt lat="51.229669802181" lon="4.461123866519">
        <ele>3.6</ele>
        <time>2020-06-05T21:13:52Z</time>
      </trkpt>
      <trkpt lat="51.229758566502" lon="4.461169715512">
        <ele>4.6</ele>
        <time>2020-06-05T21:14:06Z</time>
      </trkpt>
      <trkpt lat="51.229930814547" lon="4.461805398808">
        <ele>2.6</ele>
        <time>2020-06-05T21:14:41Z</time>
      </trkpt>
      <trkpt lat="51.230001557783" lon="4.462101866611">
        <ele>0</ele>
        <time>2020-06-05T21:14:58Z</time>
      </trkpt>
      <trkpt lat="51.230080766738" lon="4.462405291391">
        <ele>0</ele>
        <time>2020-06-05T21:15:19Z</time>
      </trkpt>
      <trkpt lat="51.230234323146" lon="4.462899991129">
        <ele>0</ele>
        <time>2020-06-05T21:16:02Z</time>
      </trkpt>
      <trkpt lat="51.230269275669" lon="4.463060588333">
        <ele>0</ele>
        <time>2020-06-05T21:16:23Z</time>
      </trkpt>
      <trkpt lat="51.23044353537" lon="4.463730385962">
        <ele>0</ele>
        <time>2020-06-05T21:16:59Z</time>
      </trkpt>
      <trkpt lat="51.230510758208" lon="4.463935239598">
        <ele>0</ele>
        <time>2020-06-05T21:17:10Z</time>
      </trkpt>
      <trkpt lat="51.230610921913" lon="4.464331284373">
        <ele>0</ele>
        <time>2020-06-05T21:17:33Z</time>
      </trkpt>
      <trkpt lat="51.230711504713" lon="4.464912066224">
        <ele>0</ele>
        <time>2020-06-05T21:18:01Z</time>
      </trkpt>
      <trkpt lat="51.230693902723" lon="4.465623773353">
        <ele>7.8</ele>
        <time>2020-06-05T21:18:57Z</time>
      </trkpt>
      <trkpt lat="51.230692310162" lon="4.465652607089">
        <ele>7.6</ele>
        <time>2020-06-05T21:18:59Z</time>
      </trkpt>
      <trkpt lat="51.230744529399" lon="4.466018979938">
        <ele>0.6</ele>
        <time>2020-06-05T21:19:27Z</time>
      </trkpt>
      <trkpt lat="51.230797586826" lon="4.466226934877">
        <ele>0</ele>
        <time>2020-06-05T21:19:39Z</time>
      </trkpt>
      <trkpt lat="51.231051893672" lon="4.466274041155">
        <ele>0</ele>
        <time>2020-06-05T21:19:57Z</time>
      </trkpt>
      <trkpt lat="51.231101933615" lon="4.466367750797">
        <ele>0</ele>
        <time>2020-06-05T21:20:04Z</time>
      </trkpt>
      <trkpt lat="51.23114761497" lon="4.466409073564">
        <ele>0</ele>
        <time>2020-06-05T21:20:11Z</time>
      </trkpt>
      <trkpt lat="51.231361437239" lon="4.466511500382">
        <ele>0</ele>
        <time>2020-06-05T21:20:29Z</time>
      </trkpt>
      <trkpt lat="51.231453219044" lon="4.46622081609">
        <ele>0</ele>
        <time>2020-06-05T21:20:43Z</time>
      </trkpt>
      <trkpt lat="51.231694031031" lon="4.465615307634">
        <ele>0</ele>
        <time>2020-06-05T21:21:15Z</time>
      </trkpt>
      <trkpt lat="51.231757984928" lon="4.465490501143">
        <ele>0</ele>
        <time>2020-06-05T21:21:23Z</time>
      </trkpt>
      <trkpt lat="51.231921683435" lon="4.465303333316">
        <ele>0</ele>
        <time>2020-06-05T21:21:40Z</time>
      </trkpt>
      <trkpt lat="51.231916989571" lon="4.465095713653">
        <ele>0</ele>
        <time>2020-06-05T21:22:04Z</time>
      </trkpt>
      <trkpt lat="51.231666203123" lon="4.464815087641">
        <ele>0.4</ele>
        <time>2020-06-05T21:22:29Z</time>
      </trkpt>
      <trkpt lat="51.231600908122" lon="4.464747780984">
        <ele>1.2</ele>
        <time>2020-06-05T21:22:38Z</time>
      </trkpt>
      <trkpt lat="51.231433018665" lon="4.464543346443">
        <ele>0</ele>
        <time>2020-06-05T21:23:16Z</time>
      </trkpt>
      <trkpt lat="51.231307960717" lon="4.463902131093">
        <ele>0</ele>
        <time>2020-06-05T21:23:56Z</time>
      </trkpt>
      <trkpt lat="51.231423882394" lon="4.463626785678">
        <ele>0</ele>
        <time>2020-06-05T21:24:20Z</time>
      </trkpt>
      <trkpt lat="51.231541061356" lon="4.463400558197">
        <ele>0</ele>
        <time>2020-06-05T21:24:37Z</time>
      </trkpt>
      <trkpt lat="51.231406364223" lon="4.463275751706">
        <ele>0</ele>
        <time>2020-06-05T21:25:08Z</time>
      </trkpt>
      <trkpt lat="51.231282731198" lon="4.462705782506">
        <ele>0</ele>
        <time>2020-06-05T21:25:55Z</time>
      </trkpt>
      <trkpt lat="51.231131270265" lon="4.462279981986">
        <ele>0</ele>
        <time>2020-06-05T21:26:38Z</time>
      </trkpt>
      <trkpt lat="51.230975618382" lon="4.461649411649">
        <ele>0</ele>
        <time>2020-06-05T21:27:16Z</time>
      </trkpt>
      <trkpt lat="51.230783421415" lon="4.460990342852">
        <ele>0</ele>
        <time>2020-06-05T21:27:55Z</time>
      </trkpt>
      <trkpt lat="51.230764729778" lon="4.460799319351">
        <ele>0</ele>
        <time>2020-06-05T21:28:09Z</time>
      </trkpt>
      <trkpt lat="51.230769088366" lon="4.460516011131">
        <ele>0</ele>
        <time>2020-06-05T21:28:30Z</time>
      </trkpt>
      <trkpt lat="51.230560379056" lon="4.459889547925">
        <ele>0</ele>
        <time>2020-06-05T21:29:13Z</time>
      </trkpt>
      <trkpt lat="51.230442194266" lon="4.459600204737">
        <ele>0</ele>
        <time>2020-06-05T21:29:43Z</time>
      </trkpt>
      <trkpt lat="51.230378827102" lon="4.458945913623">
        <ele>0</ele>
        <time>2020-06-05T21:30:19Z</time>
      </trkpt>
      <trkpt lat="51.229974065151" lon="4.459056889979">
        <ele>0</ele>
        <time>2020-06-05T21:30:57Z</time>
      </trkpt>
      <trkpt lat="51.229848588108" lon="4.45911967041">
        <ele>0.2</ele>
        <time>2020-06-05T21:31:11Z</time>
      </trkpt>
      <trkpt lat="51.229670053638" lon="4.459132997631">
        <ele>0.4</ele>
        <time>2020-06-05T21:31:28Z</time>
      </trkpt>
      <trkpt lat="51.229216760486" lon="4.459241375598">
        <ele>0</ele>
        <time>2020-06-05T21:32:08Z</time>
      </trkpt>
      <trkpt lat="51.228968404789" lon="4.459276495759">
        <ele>0</ele>
        <time>2020-06-05T21:32:32Z</time>
      </trkpt>
      <trkpt lat="51.228800599151" lon="4.459280183795">
        <ele>0.4</ele>
        <time>2020-06-05T21:32:51Z</time>
      </trkpt>
      <trkpt lat="51.228731867571" lon="4.459281105804">
        <ele>0.2</ele>
        <time>2020-06-05T21:32:59Z</time>
      </trkpt>
      <trkpt lat="51.228711164278" lon="4.459216397536">
        <ele>1.2</ele>
        <time>2020-06-05T21:33:02Z</time>
      </trkpt>
      <trkpt lat="51.228599936465" lon="4.458554897988">
        <ele>4</ele>
        <time>2020-06-05T21:33:36Z</time>
      </trkpt>
      <trkpt lat="51.228595242601" lon="4.458439646863">
        <ele>2.4</ele>
        <time>2020-06-05T21:33:45Z</time>
      </trkpt>
      <trkpt lat="51.228646791286" lon="4.458328921964">
        <ele>2.8</ele>
        <time>2020-06-05T21:33:55Z</time>
      </trkpt>
      <trkpt lat="51.22907309472" lon="4.458051983988">
        <ele>8.8</ele>
        <time>2020-06-05T21:34:38Z</time>
      </trkpt>
      <trkpt lat="51.229517586877" lon="4.45795877726">
        <ele>6.6</ele>
        <time>2020-06-05T21:35:32Z</time>
      </trkpt>
      <trkpt lat="51.229557484721" lon="4.457961543287">
        <ele>5.6</ele>
        <time>2020-06-05T21:35:36Z</time>
      </trkpt>
      <trkpt lat="51.229692936225" lon="4.457965901875">
        <ele>2.2</ele>
        <time>2020-06-05T21:36:03Z</time>
      </trkpt>
    </trkseg>
  </trk>
</gpx>